Latest Weather Observations for Smithton

IDT60801

Issued at 10:05 pm EST Thursday 17 April 2014 (issued every 30 minutes, with the page automatically refreshed every 10 minutes)

About weather observations | Map of weather stations | Latest weather observations for TAS | Other Formats
Station Details ID: 091292 Name: SMITHTON AERODROME Lat: -40.83 Lon: 145.08 Height: 7.5 m
Data from the previous 72 hours. | See also: Recent months at Smithton
Date/Time
EST
Temp
°C
App
Temp
°C
Dew
Point
Rel
Hum
%
Delta-T
°C
Wind Press
QNH
hPa
Press
MSL
hPa
Rain
since 9 am
mm
Dir
 
Spd
km/h
Gust
km/h
Spd
kts
Gust
kts
17/10:00pm 11.2 10.7 10.6 96 0.3 N 4 7 2 4 1017.0 - 0.0
17/09:30pm 12.7 11.7 12.2 97 0.3 N 9 11 5 6 1017.0 - 0.0
17/09:00pm 12.8 13.5 12.3 97 0.3 CALM 0 0 0 0 1017.3 1017.3 0.0
17/08:30pm 12.2 12.7 11.6 96 0.3 CALM 0 0 0 0 1017.6 - 0.0
17/08:00pm 11.2 10.1 10.1 93 0.6 N 6 7 3 4 1017.8 - 0.0
17/07:30pm 12.2 11.3 11.3 94 0.5 N 7 9 4 5 1017.5 - 0.0
17/07:00pm 13.0 12.1 11.4 90 0.8 N 7 9 4 5 1017.8 - 0.0
17/06:30pm 14.7 13.9 12.9 89 1.0 N 9 11 5 6 1017.8 - 0.0
17/06:00pm 15.1 13.8 12.6 85 1.4 N 11 15 6 8 1018.1 1018.1 0.0
17/05:30pm 15.8 14.6 12.9 83 1.6 N 11 13 6 7 1018.0 - 0.0
17/05:00pm 17.1 15.3 13.4 79 2.1 N 15 19 8 10 1017.9 - 0.0
17/04:30pm 17.6 15.9 13.7 78 2.2 N 15 20 8 11 1017.9 - 0.0
17/04:00pm 18.3 16.3 13.8 75 2.6 N 17 22 9 12 1018.0 - 0.0
17/03:30pm 18.4 16.2 14.3 77 2.4 NNE 19 24 10 13 1018.2 - 0.0
17/03:00pm 18.6 16.1 14.1 75 2.6 N 20 26 11 14 1018.4 1018.4 0.0
17/02:30pm 19.0 16.1 14.1 73 2.8 N 22 28 12 15 1018.6 - 0.0
17/02:00pm 18.9 16.1 14.2 74 2.7 N 22 28 12 15 1018.7 - 0.0
17/01:30pm 19.0 16.1 14.1 73 2.8 N 22 26 12 14 1018.9 - 0.0
17/01:00pm 19.2 16.8 14.5 74 2.7 N 20 24 11 13 1019.2 - 0.0
17/12:30pm 19.0 16.1 14.1 73 2.8 N 22 28 12 15 1019.7 - 0.0
17/12:00pm 19.3 16.9 14.3 73 2.9 N 20 26 11 14 1020.0 1020.0 0.0
17/11:30am 19.1 16.6 14.1 73 2.9 NNE 20 26 11 14 1020.2 - 0.0
17/11:00am 19.2 16.7 14.2 73 2.9 NE 20 26 11 14 1020.2 - 0.0
17/10:30am 18.3 15.8 14.2 77 2.4 ENE 20 26 11 14 1020.3 - 0.0
17/10:00am 18.0 16.0 13.9 77 2.3 ENE 17 24 9 13 1020.3 - 0.0
17/09:30am 16.6 14.6 13.9 84 1.5 ENE 17 20 9 11 1020.2 - 0.0
17/09:00am 16.0 15.2 15.0 94 0.6 E 13 17 7 9 1020.2 1020.2 0.0
17/08:30am 12.2 12.1 12.0 99 0.1 E 4 6 2 3 1020.3 - 0.0
17/08:00am 9.3 7.4 9.2 99 0.0 E 9 11 5 6 1020.2 - 0.0
17/07:30am 8.6 7.1 8.5 99 0.0 E 6 7 3 4 1020.2 - 0.0
17/07:00am 9.0 7.1 8.9 99 0.0 E 9 13 5 7 1020.1 - 0.0
17/06:30am 6.8 3.9 6.7 99 0.0 E 11 11 6 6 1019.9 - 0.0
17/06:00am 6.3 3.7 6.2 99 0.0 E 9 11 5 6 1019.7 1019.7 0.0
17/05:30am 7.2 4.8 7.1 99 0.0 E 9 11 5 6 1019.8 - 0.0
17/05:00am 8.9 7.9 8.8 99 0.0 E 4 6 2 3 1019.8 - 0.0
17/04:30am 8.3 5.8 8.2 99 0.0 E 11 13 6 7 1019.6 - 0.0
17/04:00am 8.8 6.8 8.7 99 0.0 E 9 11 5 6 1019.5 - 0.0
17/03:30am 7.2 4.8 6.9 98 0.1 E 9 9 5 5 1019.4 - 0.0
17/03:00am 9.1 8.1 9.0 99 0.0 E 4 7 2 4 1019.4 1019.4 0.0
17/02:30am 9.5 8.3 9.4 99 0.0 E 6 7 3 4 1019.5 - 0.0
17/02:00am 9.1 7.2 9.0 99 0.0 E 9 11 5 6 1019.8 - 0.0
17/01:30am 9.3 8.7 9.0 98 0.1 E 2 6 1 3 1020.0 - 0.0
17/01:00am 9.1 7.1 8.8 98 0.1 E 9 11 5 6 1019.9 - 0.0
17/12:30am 9.8 8.4 9.5 98 0.1 E 7 9 4 5 1019.9 - 0.0
17/12:00am 9.6 7.8 9.3 98 0.1 E 9 11 5 6 1020.0 1020.0 0.0
 
Date/Time
EST
Temp
°C
App
Temp
°C
Dew
Point
Rel
Hum
%
Delta-T
°C
Wind Press
QNH
hPa
Press
MSL
hPa
Rain
since 9 am
mm
Dir
 
Spd
km/h
Gust
km/h
Spd
kts
Gust
kts
16/11:30pm 10.4 9.1 9.9 97 0.3 E 7 9 4 5 1020.3 - 0.0
16/11:00pm 10.2 10.1 9.6 96 0.3 CALM 0 0 0 0 1020.2 - 0.0
16/10:30pm 10.4 9.1 9.3 93 0.5 E 6 9 3 5 1020.3 - 0.0
16/10:00pm 12.1 10.3 11.0 93 0.6 E 11 11 6 6 1020.3 - 0.0
16/09:30pm 13.2 12.1 12.1 93 0.6 E 9 11 5 6 1020.5 - 0.0
16/09:00pm 13.5 12.4 12.1 91 0.8 E 9 11 5 6 1020.2 1020.2 0.0
16/08:30pm 13.9 12.3 11.6 86 1.2 E 11 15 6 8 1019.9 - 0.0
16/08:00pm 14.8 12.9 11.8 82 1.6 NNE 13 19 7 10 1019.9 - 0.0
16/07:30pm 12.9 11.3 11.6 92 0.7 ENE 11 17 6 9 1020.0 - 0.0
16/07:00pm 12.9 11.1 11.0 88 1.0 ENE 11 13 6 7 1020.2 - 0.0
16/06:30pm 13.1 11.7 11.0 87 1.1 ENE 9 11 5 6 1020.2 - 0.0
16/06:00pm 12.7 11.0 9.9 83 1.4 ENE 9 11 5 6 1020.0 1020.0 0.0
16/05:30pm 14.9 13.2 11.1 78 2.0 ENE 11 15 6 8 1020.2 - 0.0
16/05:00pm 16.7 14.8 11.8 73 2.7 ENE 13 17 7 9 1020.2 - 0.0
16/04:30pm 16.9 14.2 11.6 71 2.9 NE 17 20 9 11 1020.0 - 0.0
16/04:00pm 16.8 13.4 11.1 69 3.1 NE 20 24 11 13 1019.9 - 0.0
16/03:30pm 17.5 14.1 11.3 67 3.4 ENE 20 26 11 14 1019.9 - 0.0
16/03:00pm 17.9 14.6 11.7 67 3.4 ENE 20 28 11 15 1020.0 1020.0 0.0
16/02:30pm 17.2 14.3 12.3 73 2.7 ENE 19 26 10 14 1020.2 - 0.0
16/02:00pm 17.0 13.4 11.9 72 2.8 ENE 22 28 12 15 1020.2 - 0.0
16/01:30pm 17.0 13.0 11.9 72 2.8 ENE 24 30 13 16 1020.5 - 0.0
16/01:00pm 17.2 13.5 11.5 69 3.1 ENE 22 33 12 18 1020.8 - 0.0
16/12:30pm 16.9 13.5 11.2 69 3.1 NE 20 28 11 15 1021.3 - 0.0
16/12:00pm 17.2 14.1 12.1 72 2.8 ENE 20 32 11 17 1021.5 1021.5 0.0
16/11:30am 16.6 13.0 11.9 74 2.6 ENE 22 28 12 15 1021.6 - 0.0
16/11:00am 16.1 12.6 12.3 78 2.1 ENE 22 30 12 16 1021.7 - 0.0
16/10:30am 15.9 12.4 12.1 78 2.1 ENE 22 28 12 15 1021.8 - 0.0
16/10:00am 17.0 13.4 11.9 72 2.8 NE 22 30 12 16 1022.0 - 0.0
16/09:30am 17.0 13.7 11.5 70 3.0 NE 20 30 11 16 1022.0 - 0.0
16/09:00am 16.7 12.8 10.8 68 3.1 NE 22 30 12 16 1022.2 1022.2 0.2
16/08:30am 16.2 12.6 10.7 70 2.9 NE 20 28 11 15 1022.3 - 0.2
16/08:00am 15.7 12.7 10.5 71 2.7 NE 17 24 9 13 1022.3 - 0.2
16/07:30am 15.5 12.6 10.9 74 2.4 NNE 17 22 9 12 1022.2 - 0.2
16/07:00am 15.6 12.3 11.0 74 2.5 NNE 19 24 10 13 1021.9 - 0.2
16/06:30am 15.6 12.2 11.4 76 2.3 NNE 20 30 11 16 1021.7 - 0.2
16/06:00am 15.2 12.0 11.8 80 1.8 NNE 20 26 11 14 1021.7 1021.7 0.2
16/05:30am 15.6 12.7 12.2 80 1.9 NNE 19 28 10 15 1021.9 - 0.2
16/05:00am 15.6 12.5 12.2 80 1.9 NNE 20 26 11 14 1021.9 - 0.2
16/04:30am 15.4 12.5 12.3 82 1.7 NNE 19 28 10 15 1021.8 - 0.2
16/04:00am 15.2 12.2 12.5 84 1.5 NNE 20 28 11 15 1021.8 - 0.0
16/03:30am 15.1 12.5 11.9 81 1.7 NE 17 24 9 13 1021.8 - 0.0
16/03:00am 15.2 12.0 13.2 88 1.1 NE 22 28 12 15 1022.0 1022.0 0.0
16/02:30am 15.3 12.5 12.6 84 1.5 NE 19 24 10 13 1022.4 - 0.0
16/02:00am 15.5 12.6 12.4 82 1.7 NNE 19 24 10 13 1022.7 - 0.0
16/01:30am 15.9 13.1 12.5 80 1.9 NNE 19 26 10 14 1023.0 - 0.0
16/01:00am 16.0 14.0 12.7 81 1.8 NNE 15 24 8 13 1023.1 - 0.0
16/12:30am 15.8 12.9 12.2 79 2.0 NNE 19 24 10 13 1023.3 - 0.0
16/12:00am 16.2 13.4 12.6 79 2.0 NNE 19 26 10 14 1023.5 1023.5 0.0
 
Date/Time
EST
Temp
°C
App
Temp
°C
Dew
Point
Rel
Hum
%
Delta-T
°C
Wind Press
QNH
hPa
Press
MSL
hPa
Rain
since 9 am
mm
Dir
 
Spd
km/h
Gust
km/h
Spd
kts
Gust
kts
15/11:30pm 16.1 12.7 12.5 79 2.0 NNE 22 28 12 15 1023.6 - 0.0
15/11:00pm 16.1 13.4 12.8 81 1.8 NNE 19 26 10 14 1023.8 - 0.0
15/10:30pm 15.9 13.2 12.8 82 1.7 NE 19 26 10 14 1023.9 - 0.0
15/10:00pm 16.0 13.2 12.7 81 1.8 NNE 19 26 10 14 1024.0 - 0.0
15/09:30pm 14.9 13.0 13.1 89 1.0 ENE 15 20 8 11 1024.1 - 0.0
15/09:00pm 14.7 12.1 13.1 90 0.9 ENE 19 24 10 13 1024.2 1024.2 0.0
15/08:30pm 15.0 12.3 13.0 88 1.1 ENE 19 28 10 15 1024.1 - 0.0
15/08:00pm 14.6 11.7 13.0 90 0.9 ENE 20 26 11 14 1024.1 - 0.0
15/07:30pm 13.5 11.3 12.1 91 0.8 ENE 15 19 8 10 1024.3 - 0.0
15/07:00pm 13.3 11.0 11.9 91 0.7 E 15 19 8 10 1024.1 - 0.0
15/06:30pm 13.7 11.9 12.1 90 0.9 ENE 13 17 7 9 1023.9 - 0.0
15/06:00pm 14.4 11.5 12.4 88 1.1 ENE 19 24 10 13 1023.7 1023.7 0.0
15/05:30pm 15.1 11.7 12.4 84 1.5 ENE 22 28 12 15 1023.4 - 0.0
15/05:00pm 15.6 12.3 12.7 83 1.6 ENE 22 30 12 16 1023.2 - 0.0
15/04:30pm 16.5 13.3 13.2 81 1.8 ENE 22 30 12 16 1023.1 - 0.0
15/04:00pm 17.4 14.2 13.1 76 2.4 NE 22 28 12 15 1023.1 - 0.0
15/03:30pm 16.8 13.6 13.1 79 2.1 ENE 22 28 12 15 1023.3 - 0.0
15/03:00pm 17.8 15.0 12.7 72 2.8 ENE 19 26 10 14 1023.4 1023.4 0.0
15/02:30pm 17.4 14.7 12.9 75 2.5 ENE 19 26 10 14 1023.3 - 0.0
15/02:00pm 17.6 14.5 12.1 70 3.0 ENE 20 28 11 15 1023.3 - 0.0
15/01:30pm 17.9 14.7 11.9 68 3.3 ENE 20 24 11 13 1023.3 - 0.0
15/01:00pm 18.7 15.8 12.9 69 3.3 ENE 20 30 11 16 1023.6 - 0.0
15/12:30pm 18.5 15.9 13.1 71 3.0 ENE 19 26 10 14 1023.9 - 0.0
15/12:00pm 17.8 14.8 12.7 72 2.8 E 20 28 11 15 1024.1 1024.1 0.0
15/11:30am 16.6 16.3 12.8 78 2.1 S 6 11 3 6 1024.5 - 0.0
15/11:00am 16.3 15.4 12.5 78 2.1 S 9 13 5 7 1024.6 - 0.0
15/10:30am 15.8 14.0 12.2 79 2.0 S 13 15 7 8 1024.7 - 0.0
15/10:00am 14.9 14.0 12.6 86 1.3 S 9 13 5 7 1024.9 - 0.0
15/09:30am 14.7 13.4 12.4 86 1.3 S 11 13 6 7 1024.8 - 0.0
15/09:00am 13.3 12.3 12.2 93 0.6 S 9 13 5 7 1024.8 1024.8 0.0
15/08:30am 12.0 10.4 11.5 97 0.3 S 11 13 6 7 1024.7 - 0.0
15/08:00am 10.8 8.9 10.6 99 0.1 S 11 15 6 8 1024.6 - 0.0
15/07:30am 9.3 7.4 9.2 99 0.0 S 9 13 5 7 1024.5 - 0.0
15/07:00am 7.7 4.7 7.6 99 0.0 S 13 15 7 8 1024.2 - 0.0
15/06:30am 7.7 4.7 7.6 99 0.0 S 13 15 7 8 1024.0 - 0.0
15/06:00am 8.1 5.6 8.0 99 0.0 S 11 13 6 7 1023.9 1023.9 0.0
15/05:30am 7.5 4.8 7.4 99 0.0 S 11 13 6 7 1023.7 - 0.0
15/05:00am 7.9 5.3 7.8 99 0.0 S 11 15 6 8 1023.5 - 0.0
15/04:30am 7.3 4.2 7.2 99 0.0 S 13 13 7 7 1023.6 - 0.0
15/04:00am 7.2 4.4 7.1 99 0.0 S 11 13 6 7 1023.5 - 0.0
15/03:30am 9.0 6.7 8.9 99 0.0 S 11 15 6 8 1023.6 - 0.0
15/03:00am 7.8 5.2 7.7 99 0.0 SSW 11 13 6 7 1023.6 1023.6 0.0
15/02:30am 7.9 5.3 7.8 99 0.0 S 11 13 6 7 1023.6 - 0.0
15/02:00am 7.4 4.3 7.3 99 0.0 S 13 13 7 7 1023.5 - 0.0
15/01:30am 7.7 4.6 7.4 98 0.1 S 13 13 7 7 1023.6 - 0.0
15/01:00am 8.2 5.6 7.8 97 0.2 S 11 15 6 8 1023.6 - 0.0
15/12:30am 8.7 5.5 8.6 99 0.0 SSW 15 17 8 9 1023.6 - 0.0
15/12:00am 8.7 5.9 8.4 98 0.1 SSW 13 15 7 8 1023.6 1023.6 0.0
 
Date/Time
EST
Temp
°C
App
Temp
°C
Dew
Point
Rel
Hum
%
Delta-T
°C
Wind Press
QNH
hPa
Press
MSL
hPa
Rain
since 9 am
mm
Dir
 
Spd
km/h
Gust
km/h
Spd
kts
Gust
kts
14/11:30pm 8.6 5.6 7.8 95 0.4 S 13 13 7 7 1023.7 - 0.0
14/11:00pm 9.7 7.0 8.8 94 0.4 S 13 17 7 9 1023.8 - 0.0
14/10:30pm 10.8 8.4 9.9 94 0.5 SSW 13 17 7 9 1024.0 - 0.0

Other Formats:

Comma delimited format used in spreadsheet applications
http://www.bom.gov.au/fwo/IDT60801/IDT60801.94953.axf

JavaScript Object Notation format (JSON) in row-major order
http://www.bom.gov.au/fwo/IDT60801/IDT60801.94953.json